createdAt,value
2019-01-28T00:01:01.664Z,96316.00
2019-01-28T00:03:28.844Z,96318.00
2019-01-28T00:05:55.984Z,96318.00
2019-01-28T00:08:23.224Z,96320.00
2019-01-28T00:10:50.875Z,96328.00
2019-01-28T00:13:18.144Z,96314.00
2019-01-28T00:15:49.484Z,96320.00
2019-01-28T00:18:16.664Z,96318.00
2019-01-28T00:20:43.887Z,96314.00
2019-01-28T00:23:11.144Z,96317.00
2019-01-28T00:25:38.404Z,96318.00
2019-01-28T00:28:05.544Z,96322.00
2019-01-28T00:30:32.683Z,96328.00
2019-01-28T00:32:59.946Z,96338.00
2019-01-28T00:35:27.023Z,96345.00
2019-01-28T00:37:54.206Z,96343.00
2019-01-28T00:40:21.604Z,96341.00
2019-01-28T00:42:48.664Z,96330.00
2019-01-28T00:45:15.707Z,96329.00
2019-01-28T00:47:42.844Z,96332.00
2019-01-28T00:50:11.984Z,96319.00
2019-01-28T00:52:39.144Z,96329.00
2019-01-28T00:55:10.644Z,96339.00
2019-01-28T00:57:37.983Z,96332.00
2019-01-28T01:00:16.584Z,96326.00
2019-01-28T01:02:43.924Z,96344.00
2019-01-28T01:05:11.424Z,96345.00
2019-01-28T01:07:38.724Z,96348.00
2019-01-28T01:10:10.304Z,96359.00
2019-01-28T01:12:37.344Z,96374.00
2019-01-28T01:15:09.103Z,96383.00
2019-01-28T01:17:36.225Z,96391.00
2019-01-28T01:20:07.544Z,96392.00
2019-01-28T01:22:34.584Z,96389.00
2019-01-28T01:25:01.725Z,96386.00
2019-01-28T01:27:28.784Z,96384.00
2019-01-28T01:29:55.924Z,96392.00
2019-01-28T01:32:23.006Z,96410.00
2019-01-28T01:34:50.144Z,96407.00
2019-01-28T01:37:17.464Z,96399.00
2019-01-28T01:39:44.544Z,96401.00
2019-01-28T01:42:11.621Z,96408.00
2019-01-28T01:44:38.785Z,96406.00
2019-01-28T01:47:05.845Z,96404.00
2019-01-28T01:49:33.184Z,96405.00
2019-01-28T01:52:00.263Z,96409.00
2019-01-28T01:54:27.384Z,96410.00
2019-01-28T01:56:54.424Z,96406.00
2019-01-28T01:59:21.503Z,96405.00
2019-01-28T02:01:48.624Z,96415.00
2019-01-28T02:04:15.904Z,96411.00
2019-01-28T02:06:42.986Z,96410.00
2019-01-28T02:09:10.084Z,96401.00
2019-01-28T02:11:37.224Z,96402.00
2019-01-28T02:14:04.443Z,96402.00
2019-01-28T02:16:31.503Z,96396.00
2019-01-28T02:18:58.924Z,96399.00
2019-01-28T02:21:26.349Z,96403.00
2019-01-28T02:23:53.486Z,96396.00
2019-01-28T02:26:20.644Z,96399.00
2019-01-28T02:28:47.904Z,96403.00
2019-01-28T02:31:15.044Z,96390.00
2019-01-28T02:33:42.565Z,96376.00
2019-01-28T02:36:09.644Z,96377.00
2019-01-28T02:38:36.704Z,96374.00
2019-01-28T02:41:03.738Z,96387.00
2019-01-28T02:43:30.804Z,96391.00
2019-01-28T02:45:58.026Z,96396.00
2019-01-28T02:48:25.189Z,96403.00
2019-01-28T02:50:52.525Z,96410.00
2019-01-28T02:53:19.937Z,96402.00
2019-01-28T02:55:47.125Z,96403.00
2019-01-28T02:58:14.502Z,96409.00
2019-01-28T03:00:41.728Z,96417.00
2019-01-28T03:03:08.764Z,96408.00
2019-01-28T03:05:35.924Z,96411.00
2019-01-28T03:08:03.359Z,96416.00
2019-01-28T03:10:31.064Z,96419.00
2019-01-28T03:12:58.186Z,96417.00
2019-01-28T03:15:25.326Z,96421.00
2019-01-28T03:17:52.784Z,96421.00
2019-01-28T03:20:20.144Z,96427.00
2019-01-28T03:22:47.189Z,96428.00
2019-01-28T03:25:16.844Z,96443.00
2019-01-28T03:27:44.044Z,96445.00
2019-01-28T03:30:15.405Z,96452.00
2019-01-28T03:32:42.645Z,96458.00
2019-01-28T03:35:10.304Z,96467.00
2019-01-28T03:37:37.464Z,96477.00
2019-01-28T03:40:09.984Z,96476.00
2019-01-28T03:42:37.384Z,96490.00
2019-01-28T03:45:10.089Z,96483.00
2019-01-28T03:47:37.206Z,96480.00
2019-01-28T03:50:08.886Z,96480.00
2019-01-28T03:52:36.106Z,96485.00
2019-01-28T03:55:06.846Z,96497.00
2019-01-28T03:57:34.504Z,96491.00
2019-01-28T04:00:01.865Z,96501.00
2019-01-28T04:02:29.106Z,96504.00
2019-01-28T04:04:56.184Z,96516.00
2019-01-28T04:07:23.524Z,96518.00
2019-01-28T04:09:50.647Z,96519.00
2019-01-28T04:12:17.806Z,96521.00
2019-01-28T04:14:45.064Z,96526.00
2019-01-28T04:17:12.724Z,96538.00
2019-01-28T04:19:40.068Z,96526.00
2019-01-28T04:22:07.224Z,96537.00
2019-01-28T04:24:34.384Z,96534.00
2019-01-28T04:27:01.539Z,96542.00
2019-01-28T04:29:28.661Z,96543.00
2019-01-28T04:31:55.714Z,96549.00
2019-01-28T04:34:22.985Z,96557.00
2019-01-28T04:36:50.044Z,96561.00
2019-01-28T04:39:17.187Z,96573.00
2019-01-28T04:41:44.324Z,96587.00
2019-01-28T04:44:11.464Z,96602.00
2019-01-28T04:46:38.603Z,96589.00
2019-01-28T04:49:05.642Z,96584.00
2019-01-28T04:51:32.707Z,96601.00
2019-01-28T04:54:00.264Z,96610.00
2019-01-28T04:56:27.505Z,96609.00
2019-01-28T04:58:54.545Z,96605.00
2019-01-28T05:01:21.604Z,96625.00
2019-01-28T05:03:48.746Z,96621.00
2019-01-28T05:06:16.005Z,96627.00
2019-01-28T05:08:43.661Z,96629.00
2019-01-28T05:11:11.020Z,96626.00
2019-01-28T05:13:38.365Z,96630.00
2019-01-28T05:16:05.404Z,96627.00
2019-01-28T05:18:32.664Z,96629.00
2019-01-28T05:20:59.831Z,96627.00
2019-01-28T05:23:27.484Z,96633.00
2019-01-28T05:25:54.625Z,96640.00
2019-01-28T05:28:21.764Z,96646.00
2019-01-28T05:30:49.246Z,96645.00
2019-01-28T05:33:16.646Z,96650.00
2019-01-28T05:35:43.744Z,96643.00
2019-01-28T05:38:10.743Z,96645.00
2019-01-28T05:40:37.924Z,96644.00
2019-01-28T05:43:05.088Z,96647.00
2019-01-28T05:45:32.644Z,96649.00
2019-01-28T05:47:59.703Z,96654.00
2019-01-28T05:50:26.782Z,96658.00
2019-01-28T05:52:53.845Z,96648.00
2019-01-28T05:55:21.043Z,96647.00
2019-01-28T05:57:48.784Z,96648.00
2019-01-28T06:00:20.968Z,96638.00
2019-01-28T06:02:48.133Z,96647.00
2019-01-28T06:05:15.965Z,96655.00
2019-01-28T06:07:43.124Z,96650.00
2019-01-28T06:10:14.045Z,96646.00
2019-01-28T06:12:41.603Z,96647.00
2019-01-28T06:15:14.248Z,96650.00
2019-01-28T06:17:41.323Z,96649.00
2019-01-28T06:20:16.120Z,96649.00
2019-01-28T06:22:43.752Z,96650.00
2019-01-28T06:25:11.205Z,96661.00
2019-01-28T06:27:38.424Z,96658.00
2019-01-28T06:30:31.403Z,96663.00
2019-01-28T06:32:58.527Z,96677.00
2019-01-28T06:35:25.783Z,96668.00
2019-01-28T06:37:53.144Z,96676.00
2019-01-28T06:40:31.025Z,96675.00
2019-01-28T06:42:58.183Z,96673.00
2019-01-28T06:45:25.324Z,96672.00
2019-01-28T06:47:52.463Z,96685.00
2019-01-28T06:50:21.385Z,96689.00
2019-01-28T06:52:48.624Z,96687.00
2019-01-28T06:55:16.405Z,96690.00
2019-01-28T06:57:43.744Z,96690.00
2019-01-28T07:00:33.225Z,96689.00
2019-01-28T07:03:00.825Z,96691.00
2019-01-28T07:05:28.024Z,96693.00
2019-01-28T07:07:55.304Z,96701.00
2019-01-28T07:10:22.406Z,96698.00
2019-01-28T07:12:49.565Z,96699.00
2019-01-28T07:15:20.343Z,96694.00
2019-01-28T07:17:54.384Z,96702.00
2019-01-28T07:20:24.184Z,96700.00
2019-01-28T07:22:51.585Z,96709.00
2019-01-28T07:25:19.079Z,96703.00
2019-01-28T07:27:46.492Z,96713.00
2019-01-28T07:30:21.923Z,96710.00
2019-01-28T07:32:49.124Z,96704.00
2019-01-28T07:35:16.224Z,96717.00
2019-01-28T07:37:43.364Z,96712.00
2019-01-28T07:40:14.663Z,96712.00
2019-01-28T07:42:41.864Z,96702.00
2019-01-28T07:45:20.585Z,96708.00
2019-01-28T07:47:48.784Z,96717.00
2019-01-28T07:50:16.043Z,96714.00
2019-01-28T07:52:43.163Z,96724.00
2019-01-28T07:55:10.664Z,96724.00
2019-01-28T07:57:37.763Z,96724.00
2019-01-28T08:00:16.284Z,96729.00
2019-01-28T08:02:43.524Z,96729.00
2019-01-28T08:05:13.347Z,96726.00
2019-01-28T08:07:40.504Z,96740.00
2019-01-28T08:10:11.703Z,96731.00
2019-01-28T08:12:38.783Z,96730.00
2019-01-28T08:15:10.783Z,96726.00
2019-01-28T08:17:37.928Z,96735.00
2019-01-28T08:20:11.513Z,96730.00
2019-01-28T08:22:40.064Z,96726.00
2019-01-28T08:25:11.632Z,96734.00
2019-01-28T08:27:39.144Z,96734.00
2019-01-28T08:30:12.684Z,96727.00
2019-01-28T08:32:39.844Z,96720.00
2019-01-28T08:35:09.924Z,96727.00
2019-01-28T08:37:37.024Z,96730.00
2019-01-28T08:40:12.384Z,96734.00
2019-01-28T08:42:39.483Z,96734.00
2019-01-28T08:45:10.984Z,96734.00
2019-01-28T08:47:38.703Z,96736.00
2019-01-28T08:50:20.283Z,96733.00
2019-01-28T08:52:47.844Z,96734.00
2019-01-28T08:55:19.144Z,96742.00
2019-01-28T08:57:46.344Z,96735.00
2019-01-28T09:00:21.428Z,96745.00
2019-01-28T09:02:48.623Z,96739.00
2019-01-28T09:05:17.725Z,96746.00
2019-01-28T09:07:44.975Z,96745.00
2019-01-28T09:10:16.835Z,96746.00
2019-01-28T09:12:43.996Z,96745.00
2019-01-28T09:15:16.377Z,96748.00
2019-01-28T09:17:43.696Z,96747.00
2019-01-28T09:20:24.415Z,96746.00
2019-01-28T09:22:51.616Z,96746.00
2019-01-28T09:25:19.076Z,96743.00
2019-01-28T09:27:46.315Z,96751.00
2019-01-28T09:30:18.615Z,96740.00
2019-01-28T09:33:05.476Z,96749.00
2019-01-28T09:35:32.696Z,96754.00
2019-01-28T09:38:20.037Z,96749.00
2019-01-28T09:40:47.217Z,96740.00
2019-01-28T09:43:14.316Z,96747.00
2019-01-28T09:45:42.298Z,96732.00
2019-01-28T09:48:12.455Z,96731.00
2019-01-28T09:50:39.819Z,96730.00
2019-01-28T09:53:08.077Z,96730.00
2019-01-28T09:55:35.538Z,96730.00
2019-01-28T09:58:04.455Z,96717.00
2019-01-28T10:00:44.477Z,96719.00
2019-01-28T10:03:11.636Z,96721.00
2019-01-28T10:05:39.016Z,96712.00
2019-01-28T10:08:07.716Z,96710.00
2019-01-28T10:10:34.917Z,96713.00
2019-01-28T10:13:02.078Z,96711.00
2019-01-28T10:15:29.318Z,96712.00
2019-01-28T10:17:56.476Z,96712.00
2019-01-28T10:20:45.416Z,96707.00
2019-01-28T10:23:12.797Z,96709.00
2019-01-28T10:25:41.076Z,96709.00
2019-01-28T10:28:08.816Z,96718.00
2019-01-28T10:30:40.475Z,96713.00
2019-01-28T10:33:08.576Z,96709.00
2019-01-28T10:35:58.036Z,96711.00
2019-01-28T10:38:25.277Z,96719.00
2019-01-28T10:40:52.817Z,96715.00
2019-01-28T10:43:20.076Z,96717.00
2019-01-28T10:45:47.795Z,96719.00
2019-01-28T10:48:15.712Z,96718.00
2019-01-28T10:50:42.955Z,96717.00
2019-01-28T10:53:09.996Z,96709.00
2019-01-28T10:55:37.478Z,96709.00
2019-01-28T10:58:05.236Z,96704.00
2019-01-28T11:00:39.895Z,96702.00
2019-01-28T11:03:09.676Z,96699.00
2019-01-28T11:05:36.796Z,96700.00
2019-01-28T11:08:05.696Z,96694.00
2019-01-28T11:10:32.856Z,96696.00
2019-01-28T11:13:00.596Z,96698.00
2019-01-28T11:15:30.258Z,96691.00
2019-01-28T11:18:14.932Z,96688.00
2019-01-28T11:20:42.529Z,96692.00
2019-01-28T11:23:09.896Z,96687.00
2019-01-28T11:25:37.350Z,96687.00
2019-01-28T11:28:04.777Z,96688.00
2019-01-28T11:30:43.678Z,96681.00
2019-01-28T11:33:11.184Z,96674.00
2019-01-28T11:35:39.412Z,96680.00
2019-01-28T11:38:06.849Z,96675.00
2019-01-28T11:40:34.230Z,96667.00
2019-01-28T11:43:01.645Z,96671.00
2019-01-28T11:45:40.119Z,96665.00
2019-01-28T11:48:08.274Z,96662.00
2019-01-28T11:50:35.572Z,96663.00
2019-01-28T11:53:03.891Z,96667.00
2019-01-28T11:55:31.192Z,96675.00
2019-01-28T11:57:58.431Z,96668.00
2019-01-28T12:00:47.914Z,96666.00
2019-01-28T12:03:15.213Z,96663.00
2019-01-28T12:08:08.933Z,96674.00
2019-01-28T12:10:36.672Z,96674.00
2019-01-28T12:13:04.855Z,96666.00
2019-01-28T12:15:32.875Z,96672.00
2019-01-28T12:17:59.952Z,96662.00
2019-01-28T12:20:27.053Z,96669.00
2019-01-28T12:22:54.251Z,96664.00
2019-01-28T12:25:21.671Z,96663.00
2019-01-28T12:27:49.292Z,96660.00
2019-01-28T12:30:24.231Z,96677.00
2019-01-28T12:32:51.371Z,96668.00
2019-01-28T12:35:18.553Z,96668.00
2019-01-28T12:37:45.793Z,96672.00
2019-01-28T12:40:18.992Z,96677.00
2019-01-28T12:42:46.653Z,96672.00
2019-01-28T12:45:18.653Z,96686.00
2019-01-28T12:47:46.152Z,96679.00
2019-01-28T12:50:18.014Z,96677.00
2019-01-28T12:52:53.352Z,96682.00
2019-01-28T12:55:23.053Z,96682.00
2019-01-28T12:57:50.632Z,96684.00
2019-01-28T13:00:24.251Z,96682.00
2019-01-28T13:02:51.593Z,96687.00
2019-01-28T13:05:22.353Z,96684.00
2019-01-28T13:07:49.651Z,96686.00
2019-01-28T13:10:23.301Z,96687.00
2019-01-28T13:12:50.812Z,96681.00
2019-01-28T13:15:29.893Z,96683.00
2019-01-28T13:17:57.472Z,96690.00
2019-01-28T13:20:25.352Z,96692.00
2019-01-28T13:22:52.875Z,96685.00
2019-01-28T13:25:27.999Z,96694.00
2019-01-28T13:27:55.952Z,96687.00
2019-01-28T13:30:26.673Z,96696.00
2019-01-28T13:32:55.152Z,96694.00
2019-01-28T13:35:22.392Z,96694.00
2019-01-28T13:37:49.753Z,96697.00
2019-01-28T13:40:17.433Z,96705.00
2019-01-28T13:42:44.553Z,96703.00
2019-01-28T13:45:20.094Z,96707.00
2019-01-28T13:47:49.872Z,96716.00
2019-01-28T13:50:20.033Z,96710.00
2019-01-28T13:53:09.054Z,96713.00
2019-01-28T13:55:36.232Z,96713.00
2019-01-28T13:58:04.551Z,96707.00
2019-01-28T14:00:32.355Z,96716.00
2019-01-28T14:02:59.856Z,96721.00
2019-01-28T14:05:27.071Z,96723.00
2019-01-28T14:07:55.356Z,96727.00
2019-01-28T14:10:24.116Z,96721.00
2019-01-28T14:12:51.353Z,96724.00
2019-01-28T14:15:34.655Z,96726.00
2019-01-28T14:18:01.937Z,96728.00
2019-01-28T14:20:34.899Z,96730.00
2019-01-28T14:23:02.658Z,96735.00
2019-01-28T14:25:29.725Z,96741.00
2019-01-28T14:27:56.837Z,96739.00
2019-01-28T14:30:34.841Z,96746.00
2019-01-28T14:33:01.903Z,96747.00
2019-01-28T14:35:29.031Z,96742.00
2019-01-28T14:37:56.270Z,96734.00
2019-01-28T14:40:25.510Z,96744.00
2019-01-28T14:42:52.586Z,96747.00
2019-01-28T14:45:19.673Z,96745.00
2019-01-28T14:47:46.823Z,96751.00
2019-01-28T14:50:27.822Z,96748.00
2019-01-28T14:52:54.911Z,96752.00
2019-01-28T14:55:22.192Z,96756.00
2019-01-28T14:57:49.350Z,96751.00
2019-01-28T15:00:24.055Z,96752.00
2019-01-28T15:02:51.156Z,96754.00
2019-01-28T15:05:18.216Z,96765.00
2019-01-28T15:07:45.295Z,96761.00
2019-01-28T15:10:16.595Z,96763.00
2019-01-28T15:12:44.500Z,96754.00
2019-01-28T15:15:16.893Z,96766.00
2019-01-28T15:17:44.071Z,96761.00
2019-01-28T15:20:11.310Z,96766.00
2019-01-28T15:22:38.399Z,96769.00
2019-01-28T15:25:10.014Z,96765.00
2019-01-28T15:27:37.491Z,96765.00
2019-01-28T15:30:10.313Z,96765.00
2019-01-28T15:32:38.136Z,96770.00
2019-01-28T15:35:07.232Z,96764.00
2019-01-28T15:37:34.491Z,96774.00
2019-01-28T15:40:02.191Z,96770.00
2019-01-28T15:42:29.257Z,96776.00
2019-01-28T15:44:56.407Z,96771.00
2019-01-28T15:47:23.442Z,96785.00
2019-01-28T15:49:50.633Z,96779.00
2019-01-28T15:52:17.675Z,96783.00
2019-01-28T15:54:44.762Z,96790.00
2019-01-28T15:57:11.924Z,96790.00
2019-01-28T15:59:39.063Z,96792.00
2019-01-28T16:02:06.540Z,96798.00
2019-01-28T16:04:33.639Z,96808.00
2019-01-28T16:07:00.689Z,96811.00
2019-01-28T16:09:28.964Z,96814.00
2019-01-28T16:11:56.508Z,96825.00
2019-01-28T16:14:23.572Z,96825.00
2019-01-28T16:16:50.892Z,96821.00
2019-01-28T16:19:17.991Z,96824.00
2019-01-28T16:21:45.108Z,96830.00
2019-01-28T16:24:12.188Z,96831.00
2019-01-28T16:26:39.268Z,96831.00
2019-01-28T16:29:08.147Z,96833.00
2019-01-28T16:31:35.188Z,96836.00
2019-01-28T16:34:02.268Z,96835.00
2019-01-28T16:36:29.789Z,96839.00
2019-01-28T16:38:56.908Z,96836.00
2019-01-28T16:41:24.016Z,96842.00
2019-01-28T16:43:51.068Z,96845.00
2019-01-28T16:46:18.081Z,96836.00
2019-01-28T16:48:45.120Z,96846.00
2019-01-28T16:51:12.189Z,96851.00
2019-01-28T16:53:39.228Z,96861.00
2019-01-28T16:56:06.387Z,96859.00
2019-01-28T16:58:33.428Z,96858.00
2019-01-28T17:01:00.555Z,96852.00
2019-01-28T17:03:27.638Z,96860.00
2019-01-28T17:05:54.696Z,96856.00
2019-01-28T17:08:22.053Z,96865.00
2019-01-28T17:10:49.193Z,96857.00
2019-01-28T17:13:16.166Z,96861.00
2019-01-28T17:15:43.365Z,96865.00
2019-01-28T17:18:10.706Z,96868.00
2019-01-28T17:20:38.253Z,96861.00
2019-01-28T17:23:06.018Z,96861.00
2019-01-28T17:25:42.798Z,96867.00
2019-01-28T17:28:10.099Z,96871.00
2019-01-28T17:30:41.464Z,96868.00
2019-01-28T17:33:08.720Z,96861.00
2019-01-28T17:35:55.539Z,96874.00
2019-01-28T17:38:22.666Z,96871.00
2019-01-28T17:40:49.700Z,96865.00
2019-01-28T17:43:16.978Z,96887.00
2019-01-28T17:45:44.169Z,96879.00
2019-01-28T17:48:31.090Z,96885.00
2019-01-28T17:50:58.469Z,96881.00
2019-01-28T17:53:25.551Z,96879.00
2019-01-28T17:55:52.870Z,96885.00
2019-01-28T17:58:19.929Z,96880.00
2019-01-28T18:00:49.150Z,96878.00
2019-01-28T18:03:16.229Z,96880.00
2019-01-28T18:05:43.431Z,96883.00
2019-01-28T18:08:10.549Z,96884.00
2019-01-28T18:10:37.708Z,96893.00
2019-01-28T18:13:05.328Z,96894.00
2019-01-28T18:15:32.963Z,96895.00
2019-01-28T18:18:00.049Z,96901.00
2019-01-28T18:20:27.171Z,96898.00
2019-01-28T18:22:54.729Z,96903.00
2019-01-28T18:25:29.651Z,96900.00
2019-01-28T18:27:57.108Z,96905.00
2019-01-28T18:30:29.468Z,96913.00
2019-01-28T18:32:57.028Z,96903.00
2019-01-28T18:35:24.472Z,96906.00
2019-01-28T18:37:51.730Z,96913.00
2019-01-28T18:40:18.889Z,96904.00
2019-01-28T18:42:45.968Z,96908.00
2019-01-28T18:45:18.377Z,96910.00
2019-01-28T18:47:46.890Z,96912.00
2019-01-28T18:50:22.830Z,96911.00
2019-01-28T18:52:51.808Z,96911.00
2019-01-28T18:55:21.910Z,96909.00
2019-01-28T18:57:49.609Z,96910.00
2019-01-28T19:00:29.756Z,96922.00
2019-01-28T19:02:56.992Z,96917.00
2019-01-28T19:05:42.871Z,96919.00
2019-01-28T19:08:14.950Z,96918.00
2019-01-28T19:10:49.432Z,96918.00
2019-01-28T19:13:18.391Z,96923.00
2019-01-28T19:16:05.290Z,96933.00
2019-01-28T19:18:34.231Z,96936.00
2019-01-28T19:21:08.039Z,96935.00
2019-01-28T19:23:32.050Z,96938.00
2019-01-28T19:25:59.170Z,96940.00
2019-01-28T19:28:26.231Z,96949.00
2019-01-28T19:30:53.334Z,96955.00
2019-01-28T19:33:20.431Z,96953.00
2019-01-28T19:35:47.530Z,96962.00
2019-01-28T19:38:14.570Z,96975.00
2019-01-28T19:40:41.681Z,96973.00
2019-01-28T19:43:08.806Z,96990.00
2019-01-28T19:45:35.944Z,96993.00
2019-01-28T19:48:04.304Z,96998.00
2019-01-28T19:50:31.704Z,96993.00
2019-01-28T19:52:59.123Z,96998.00
2019-01-28T19:55:26.287Z,97000.00
2019-01-28T19:57:53.643Z,97007.00
2019-01-28T20:00:23.843Z,97016.00
2019-01-28T20:02:50.903Z,97016.00
2019-01-28T20:05:18.026Z,97023.00
2019-01-28T20:07:45.083Z,97026.00
2019-01-28T20:10:14.025Z,97018.00
2019-01-28T20:12:41.104Z,97020.00
2019-01-28T20:15:19.104Z,97036.00
2019-01-28T20:17:46.503Z,97030.00
2019-01-28T20:20:17.761Z,97019.00
2019-01-28T20:22:45.122Z,97030.00
2019-01-28T20:25:15.562Z,97032.00
2019-01-28T20:27:42.602Z,97026.00
2019-01-28T20:30:25.941Z,97027.00
2019-01-28T20:32:53.042Z,97035.00
2019-01-28T20:35:20.519Z,97035.00
2019-01-28T20:37:47.858Z,97040.00
2019-01-28T20:40:15.681Z,97043.00
2019-01-28T20:42:42.859Z,97038.00
2019-01-28T20:45:15.279Z,97047.00
2019-01-28T20:48:02.126Z,97042.00
2019-01-28T20:50:29.794Z,97045.00
2019-01-28T20:52:57.863Z,97041.00
2019-01-28T20:55:25.240Z,97047.00
2019-01-28T20:57:52.749Z,97045.00
2019-01-28T21:00:23.460Z,97046.00
2019-01-28T21:02:52.135Z,97045.00
2019-01-28T21:05:21.158Z,97049.00
2019-01-28T21:07:48.387Z,97046.00
2019-01-28T21:10:19.029Z,97049.00
2019-01-28T21:12:46.578Z,97044.00
2019-01-28T21:15:16.063Z,97051.00
2019-01-28T21:17:43.958Z,97052.00
2019-01-28T21:20:19.779Z,97052.00
2019-01-28T21:22:47.898Z,97057.00
2019-01-28T21:25:45.799Z,97053.00
2019-01-28T21:28:12.978Z,97052.00
2019-01-28T21:30:40.139Z,97058.00
2019-01-28T21:33:07.379Z,97048.00
2019-01-28T21:35:39.038Z,97062.00
2019-01-28T21:38:07.939Z,97058.00
2019-01-28T21:40:35.282Z,97055.00
2019-01-28T21:43:02.520Z,97050.00
2019-01-28T21:45:29.601Z,97045.00
2019-01-28T21:47:56.706Z,97054.00
2019-01-28T21:50:26.288Z,97061.00
2019-01-28T21:52:53.587Z,97059.00
2019-01-28T21:55:20.681Z,97058.00
2019-01-28T21:57:47.802Z,97066.00
2019-01-28T22:00:15.963Z,97076.00
2019-01-28T22:02:43.087Z,97062.00
2019-01-28T22:05:10.701Z,97071.00
2019-01-28T22:07:38.182Z,97075.00
2019-01-28T22:10:14.361Z,97077.00
2019-01-28T22:12:41.482Z,97079.00
2019-01-28T22:15:13.363Z,97076.00
2019-01-28T22:17:40.502Z,97085.00
2019-01-28T22:20:10.941Z,97085.00
2019-01-28T22:22:38.042Z,97093.00
2019-01-28T22:25:10.401Z,97095.00
2019-01-28T22:27:37.460Z,97102.00
2019-01-28T22:30:19.071Z,97106.00
2019-01-28T22:32:46.281Z,97121.00
2019-01-28T22:35:13.820Z,97119.00
2019-01-28T22:37:40.961Z,97120.00
2019-01-28T22:40:12.300Z,97125.00
2019-01-28T22:42:40.542Z,97127.00
2019-01-28T22:45:15.020Z,97125.00
2019-01-28T22:47:42.161Z,97124.00
2019-01-28T22:50:18.499Z,97131.00
2019-01-28T22:52:45.639Z,97127.00
2019-01-28T22:55:16.381Z,97127.00
2019-01-28T22:57:43.600Z,97131.00
2019-01-28T23:00:35.839Z,97129.00
2019-01-28T23:03:04.360Z,97143.00
2019-01-28T23:05:31.440Z,97139.00
2019-01-28T23:07:58.540Z,97143.00
2019-01-28T23:10:25.579Z,97135.00
2019-01-28T23:12:52.657Z,97146.00
2019-01-28T23:15:20.240Z,97137.00
2019-01-28T23:17:47.338Z,97143.00
2019-01-28T23:20:14.341Z,97139.00
2019-01-28T23:22:41.460Z,97137.00
2019-01-28T23:25:08.619Z,97144.00
2019-01-28T23:27:35.720Z,97150.00
2019-01-28T23:30:06.076Z,97145.00
2019-01-28T23:32:33.239Z,97132.00
2019-01-28T23:35:00.400Z,97150.00
2019-01-28T23:37:27.699Z,97151.00
2019-01-28T23:39:55.181Z,97155.00
2019-01-28T23:42:22.279Z,97154.00
2019-01-28T23:44:49.340Z,97161.00
2019-01-28T23:47:16.460Z,97152.00
2019-01-28T23:49:43.540Z,97154.00
2019-01-28T23:52:10.668Z,97163.00
2019-01-28T23:54:37.800Z,97167.00
2019-01-28T23:57:04.920Z,97158.00
2019-01-28T23:59:32.230Z,97157.00
